Main page
METAR-TAF:

METAR-TAF

Airports :

Agra Airport

Agra, India

latitude: 27-09-27N, longitude: 077-57-39E, elevation: 168 m

METAR: missing

Time: 03:57 (22:27 UTC)

Forecast

The report was made 6 hours and 57 minutes ago, at 15:30 UTC
Forecast valid from 20 at 18 UTC to 21 at 06 UTC
Wind 10 kt from the East
Visibility: 6000 m
Scattered clouds at a height of 3000 ft
Broken clouds at a height of 10000 ft
Temporary
from 20 at 19 UTC to 20 at 21 UTC
Wind 15 kt from the North/Northwest with gusts up to 25 kt
Visibility: 3000 m
Scattered clouds at a height of 2000 ft
Few clouds at a height of 3000 ft, Cumulonimbus.
Broken clouds at a height of 9000 ft
thunderstorm, rain
Becoming
from 21 at 00 UTC to 21 at 03 UTC
Visibility: 3000 m
mist

TAF: VIAG 201530Z 2018/2106 09010KT 6000 SCT030 BKN100 TEMPO 2019/2021 34015G25KT 3000 TSRA SCT020 FEW030CB BKN090 BECMG 2100/2103 3000 BR

Weather observations and forecasts of more than 4000 airports (METAR and TAF reports).

The available stations are represented by yellow and red dots on the map.

Hover mouse over dot to see the name of the station.

Then click to see weather observations and forecasts.

To change the map : click on the green buttons with a black cross to zoom in, on the green button with a dash to zoom out, or on the green arrows for adjacent maps.


METAR-TAF: